sensor_id;sensor_type;location;lat;lon;timestamp;P1;durP1;ratioP1;P2;durP2;ratioP2
15712;SDS011;7957;51.608;6.916;2023-07-13T00:01:49;5.37;;;2.37;;
15712;SDS011;7957;51.608;6.916;2023-07-13T00:04:17;4.67;;;2.53;;
15712;SDS011;7957;51.608;6.916;2023-07-13T00:06:45;4.53;;;2.53;;
15712;SDS011;7957;51.608;6.916;2023-07-13T00:09:13;3.97;;;2.30;;
15712;SDS011;7957;51.608;6.916;2023-07-13T00:11:42;5.40;;;2.70;;
15712;SDS011;7957;51.608;6.916;2023-07-13T00:14:10;5.57;;;2.20;;
15712;SDS011;7957;51.608;6.916;2023-07-13T00:16:39;4.40;;;2.50;;
15712;SDS011;7957;51.608;6.916;2023-07-13T00:19:09;5.07;;;2.30;;
15712;SDS011;7957;51.608;6.916;2023-07-13T00:21:36;5.53;;;2.37;;
15712;SDS011;7957;51.608;6.916;2023-07-13T00:24:04;4.03;;;2.30;;
15712;SDS011;7957;51.608;6.916;2023-07-13T00:26:31;4.47;;;2.20;;
15712;SDS011;7957;51.608;6.916;2023-07-13T00:28:59;3.87;;;2.30;;
15712;SDS011;7957;51.608;6.916;2023-07-13T00:31:26;5.33;;;2.47;;
15712;SDS011;7957;51.608;6.916;2023-07-13T00:33:54;5.37;;;2.57;;
15712;SDS011;7957;51.608;6.916;2023-07-13T00:36:21;5.27;;;2.47;;
15712;SDS011;7957;51.608;6.916;2023-07-13T00:38:49;5.17;;;2.40;;
15712;SDS011;7957;51.608;6.916;2023-07-13T00:41:15;5.87;;;2.70;;
15712;SDS011;7957;51.608;6.916;2023-07-13T00:43:42;4.47;;;2.30;;
15712;SDS011;7957;51.608;6.916;2023-07-13T00:46:12;4.07;;;2.43;;
15712;SDS011;7957;51.608;6.916;2023-07-13T00:48:50;4.97;;;2.43;;
15712;SDS011;7957;51.608;6.916;2023-07-13T00:51:28;4.50;;;2.20;;
15712;SDS011;7957;51.608;6.916;2023-07-13T00:53:58;4.60;;;2.20;;
15712;SDS011;7957;51.608;6.916;2023-07-13T00:56:30;3.13;;;2.03;;
15712;SDS011;7957;51.608;6.916;2023-07-13T00:58:57;4.10;;;2.17;;
15712;SDS011;7957;51.608;6.916;2023-07-13T01:01:28;3.23;;;2.03;;
15712;SDS011;7957;51.608;6.916;2023-07-13T01:03:56;4.40;;;2.33;;
15712;SDS011;7957;51.608;6.916;2023-07-13T01:06:24;5.20;;;2.13;;
15712;SDS011;7957;51.608;6.916;2023-07-13T01:08:52;4.43;;;2.10;;
15712;SDS011;7957;51.608;6.916;2023-07-13T01:11:19;3.10;;;2.07;;
15712;SDS011;7957;51.608;6.916;2023-07-13T01:13:47;5.10;;;2.17;;
15712;SDS011;7957;51.608;6.916;2023-07-13T01:16:15;3.70;;;2.30;;
15712;SDS011;7957;51.608;6.916;2023-07-13T01:18:49;3.97;;;2.30;;
15712;SDS011;7957;51.608;6.916;2023-07-13T01:21:17;2.70;;;2.10;;
15712;SDS011;7957;51.608;6.916;2023-07-13T01:23:44;3.27;;;2.00;;
15712;SDS011;7957;51.608;6.916;2023-07-13T01:26:12;5.63;;;2.27;;
15712;SDS011;7957;51.608;6.916;2023-07-13T01:28:39;3.90;;;2.30;;
15712;SDS011;7957;51.608;6.916;2023-07-13T01:31:06;3.80;;;2.33;;
15712;SDS011;7957;51.608;6.916;2023-07-13T01:33:33;3.53;;;2.37;;
15712;SDS011;7957;51.608;6.916;2023-07-13T01:36:00;4.13;;;2.27;;
15712;SDS011;7957;51.608;6.916;2023-07-13T01:38:28;5.73;;;2.13;;
15712;SDS011;7957;51.608;6.916;2023-07-13T01:40:55;4.37;;;2.37;;
15712;SDS011;7957;51.608;6.916;2023-07-13T01:43:22;3.90;;;2.10;;
15712;SDS011;7957;51.608;6.916;2023-07-13T01:45:49;5.73;;;1.90;;
15712;SDS011;7957;51.608;6.916;2023-07-13T01:48:16;5.10;;;2.20;;
15712;SDS011;7957;51.608;6.916;2023-07-13T01:50:44;5.47;;;2.33;;
15712;SDS011;7957;51.608;6.916;2023-07-13T01:53:11;3.23;;;2.07;;
15712;SDS011;7957;51.608;6.916;2023-07-13T01:55:39;3.37;;;2.23;;
15712;SDS011;7957;51.608;6.916;2023-07-13T01:58:06;4.30;;;2.17;;
15712;SDS011;7957;51.608;6.916;2023-07-13T02:00:33;6.47;;;2.20;;
15712;SDS011;7957;51.608;6.916;2023-07-13T02:03:00;5.57;;;2.10;;
15712;SDS011;7957;51.608;6.916;2023-07-13T02:05:27;3.30;;;2.27;;
15712;SDS011;7957;51.608;6.916;2023-07-13T02:07:54;6.50;;;2.27;;
15712;SDS011;7957;51.608;6.916;2023-07-13T02:10:21;4.37;;;2.20;;
15712;SDS011;7957;51.608;6.916;2023-07-13T02:12:50;3.47;;;2.00;;
15712;SDS011;7957;51.608;6.916;2023-07-13T02:15:17;3.77;;;2.10;;
15712;SDS011;7957;51.608;6.916;2023-07-13T02:17:44;3.03;;;1.90;;
15712;SDS011;7957;51.608;6.916;2023-07-13T02:20:12;3.73;;;2.03;;
15712;SDS011;7957;51.608;6.916;2023-07-13T02:22:39;4.10;;;2.43;;
15712;SDS011;7957;51.608;6.916;2023-07-13T02:25:06;4.43;;;2.03;;
15712;SDS011;7957;51.608;6.916;2023-07-13T02:27:33;4.50;;;1.97;;
15712;SDS011;7957;51.608;6.916;2023-07-13T02:30:02;6.77;;;2.33;;
15712;SDS011;7957;51.608;6.916;2023-07-13T02:32:29;5.17;;;2.00;;
15712;SDS011;7957;51.608;6.916;2023-07-13T02:34:57;3.70;;;2.13;;
15712;SDS011;7957;51.608;6.916;2023-07-13T02:37:24;3.60;;;2.00;;
15712;SDS011;7957;51.608;6.916;2023-07-13T02:39:51;5.70;;;2.17;;
15712;SDS011;7957;51.608;6.916;2023-07-13T02:42:17;7.00;;;2.40;;
15712;SDS011;7957;51.608;6.916;2023-07-13T02:44:44;3.77;;;2.17;;
15712;SDS011;7957;51.608;6.916;2023-07-13T02:47:13;4.70;;;2.40;;
15712;SDS011;7957;51.608;6.916;2023-07-13T02:49:40;4.00;;;1.90;;
15712;SDS011;7957;51.608;6.916;2023-07-13T02:52:07;4.30;;;1.97;;
15712;SDS011;7957;51.608;6.916;2023-07-13T02:54:33;4.67;;;2.03;;
15712;SDS011;7957;51.608;6.916;2023-07-13T02:57:00;3.70;;;1.80;;
15712;SDS011;7957;51.608;6.916;2023-07-13T02:59:27;4.67;;;2.03;;
15712;SDS011;7957;51.608;6.916;2023-07-13T03:01:54;3.53;;;2.00;;
15712;SDS011;7957;51.608;6.916;2023-07-13T03:04:24;3.70;;;2.10;;
15712;SDS011;7957;51.608;6.916;2023-07-13T03:06:51;4.03;;;2.00;;
15712;SDS011;7957;51.608;6.916;2023-07-13T03:09:18;3.03;;;1.77;;
15712;SDS011;7957;51.608;6.916;2023-07-13T03:11:45;4.07;;;1.90;;
15712;SDS011;7957;51.608;6.916;2023-07-13T03:14:12;4.43;;;2.03;;
15712;SDS011;7957;51.608;6.916;2023-07-13T03:16:39;5.40;;;2.10;;
15712;SDS011;7957;51.608;6.916;2023-07-13T03:19:06;3.17;;;2.20;;
15712;SDS011;7957;51.608;6.916;2023-07-13T03:21:34;3.43;;;1.90;;
15712;SDS011;7957;51.608;6.916;2023-07-13T03:24:01;4.90;;;2.27;;
15712;SDS011;7957;51.608;6.916;2023-07-13T03:26:28;5.03;;;2.50;;
15712;SDS011;7957;51.608;6.916;2023-07-13T03:28:55;3.23;;;2.33;;
15712;SDS011;7957;51.608;6.916;2023-07-13T03:31:23;3.93;;;2.30;;
15712;SDS011;7957;51.608;6.916;2023-07-13T03:33:51;3.77;;;1.90;;
15712;SDS011;7957;51.608;6.916;2023-07-13T03:36:19;4.23;;;2.10;;
15712;SDS011;7957;51.608;6.916;2023-07-13T03:38:49;3.97;;;2.30;;
15712;SDS011;7957;51.608;6.916;2023-07-13T03:41:18;5.03;;;2.23;;
15712;SDS011;7957;51.608;6.916;2023-07-13T03:43:45;5.23;;;2.00;;
15712;SDS011;7957;51.608;6.916;2023-07-13T03:46:13;5.00;;;2.50;;
15712;SDS011;7957;51.608;6.916;2023-07-13T03:48:41;6.73;;;2.47;;
15712;SDS011;7957;51.608;6.916;2023-07-13T03:51:09;3.70;;;2.30;;
15712;SDS011;7957;51.608;6.916;2023-07-13T03:53:38;4.10;;;2.00;;
15712;SDS011;7957;51.608;6.916;2023-07-13T03:56:08;5.00;;;2.40;;
15712;SDS011;7957;51.608;6.916;2023-07-13T03:58:36;3.77;;;2.00;;
15712;SDS011;7957;51.608;6.916;2023-07-13T04:01:05;4.60;;;2.60;;
15712;SDS011;7957;51.608;6.916;2023-07-13T04:03:33;4.77;;;2.57;;
15712;SDS011;7957;51.608;6.916;2023-07-13T04:06:01;5.60;;;2.57;;
15712;SDS011;7957;51.608;6.916;2023-07-13T04:08:28;3.63;;;2.10;;
15712;SDS011;7957;51.608;6.916;2023-07-13T04:10:57;4.30;;;2.43;;
15712;SDS011;7957;51.608;6.916;2023-07-13T04:13:26;6.23;;;2.30;;
15712;SDS011;7957;51.608;6.916;2023-07-13T04:15:54;4.30;;;2.03;;
15712;SDS011;7957;51.608;6.916;2023-07-13T04:18:21;4.93;;;2.50;;
15712;SDS011;7957;51.608;6.916;2023-07-13T04:20:49;3.87;;;2.40;;
15712;SDS011;7957;51.608;6.916;2023-07-13T04:23:16;3.50;;;2.27;;
15712;SDS011;7957;51.608;6.916;2023-07-13T04:25:44;5.53;;;2.40;;
15712;SDS011;7957;51.608;6.916;2023-07-13T04:28:12;4.90;;;2.30;;
15712;SDS011;7957;51.608;6.916;2023-07-13T04:30:40;4.83;;;2.67;;
15712;SDS011;7957;51.608;6.916;2023-07-13T04:33:07;3.30;;;2.30;;
15712;SDS011;7957;51.608;6.916;2023-07-13T04:35:35;5.17;;;2.63;;
15712;SDS011;7957;51.608;6.916;2023-07-13T04:38:02;4.83;;;2.50;;
15712;SDS011;7957;51.608;6.916;2023-07-13T04:40:29;5.70;;;2.90;;
15712;SDS011;7957;51.608;6.916;2023-07-13T04:42:56;4.30;;;2.60;;
15712;SDS011;7957;51.608;6.916;2023-07-13T04:45:24;6.57;;;2.50;;
15712;SDS011;7957;51.608;6.916;2023-07-13T04:47:54;7.03;;;2.80;;
15712;SDS011;7957;51.608;6.916;2023-07-13T04:50:22;5.03;;;2.50;;
15712;SDS011;7957;51.608;6.916;2023-07-13T04:52:49;5.27;;;2.30;;
15712;SDS011;7957;51.608;6.916;2023-07-13T04:55:16;6.20;;;2.27;;
15712;SDS011;7957;51.608;6.916;2023-07-13T04:57:44;5.17;;;2.50;;
15712;SDS011;7957;51.608;6.916;2023-07-13T05:00:12;6.00;;;2.70;;
15712;SDS011;7957;51.608;6.916;2023-07-13T05:02:40;6.70;;;3.00;;
15712;SDS011;7957;51.608;6.916;2023-07-13T05:05:12;7.93;;;2.93;;
15712;SDS011;7957;51.608;6.916;2023-07-13T05:07:39;6.20;;;2.97;;
15712;SDS011;7957;51.608;6.916;2023-07-13T05:10:06;7.50;;;2.80;;
15712;SDS011;7957;51.608;6.916;2023-07-13T05:12:34;5.53;;;2.90;;
15712;SDS011;7957;51.608;6.916;2023-07-13T05:15:02;5.00;;;2.90;;
15712;SDS011;7957;51.608;6.916;2023-07-13T05:17:29;7.90;;;2.90;;
15712;SDS011;7957;51.608;6.916;2023-07-13T05:20:07;6.57;;;2.77;;
15712;SDS011;7957;51.608;6.916;2023-07-13T05:22:36;6.30;;;2.90;;
15712;SDS011;7957;51.608;6.916;2023-07-13T05:25:04;5.93;;;2.90;;
15712;SDS011;7957;51.608;6.916;2023-07-13T05:27:32;6.07;;;2.80;;
15712;SDS011;7957;51.608;6.916;2023-07-13T05:29:59;8.10;;;2.93;;
15712;SDS011;7957;51.608;6.916;2023-07-13T05:32:26;7.23;;;3.00;;
15712;SDS011;7957;51.608;6.916;2023-07-13T05:34:53;6.47;;;2.93;;
15712;SDS011;7957;51.608;6.916;2023-07-13T05:37:33;9.33;;;3.20;;
15712;SDS011;7957;51.608;6.916;2023-07-13T05:40:01;6.13;;;2.70;;
15712;SDS011;7957;51.608;6.916;2023-07-13T05:42:29;6.90;;;2.90;;
15712;SDS011;7957;51.608;6.916;2023-07-13T05:44:56;11.00;;;3.30;;
15712;SDS011;7957;51.608;6.916;2023-07-13T05:47:23;7.63;;;3.63;;
15712;SDS011;7957;51.608;6.916;2023-07-13T05:49:50;8.13;;;3.47;;
15712;SDS011;7957;51.608;6.916;2023-07-13T05:52:17;10.27;;;3.53;;
15712;SDS011;7957;51.608;6.916;2023-07-13T05:54:44;7.37;;;3.07;;
15712;SDS011;7957;51.608;6.916;2023-07-13T05:57:12;7.73;;;3.60;;
15712;SDS011;7957;51.608;6.916;2023-07-13T05:59:40;8.90;;;3.53;;
15712;SDS011;7957;51.608;6.916;2023-07-13T06:02:10;8.03;;;3.13;;
15712;SDS011;7957;51.608;6.916;2023-07-13T06:04:36;8.90;;;3.37;;
15712;SDS011;7957;51.608;6.916;2023-07-13T06:07:04;6.80;;;3.40;;
15712;SDS011;7957;51.608;6.916;2023-07-13T06:09:31;9.87;;;3.40;;
15712;SDS011;7957;51.608;6.916;2023-07-13T06:11:58;7.80;;;3.77;;
15712;SDS011;7957;51.608;6.916;2023-07-13T06:14:27;8.03;;;3.90;;
15712;SDS011;7957;51.608;6.916;2023-07-13T06:16:54;6.53;;;3.67;;
15712;SDS011;7957;51.608;6.916;2023-07-13T06:19:20;8.20;;;3.73;;
15712;SDS011;7957;51.608;6.916;2023-07-13T06:21:47;10.07;;;4.07;;
15712;SDS011;7957;51.608;6.916;2023-07-13T06:24:14;8.70;;;3.73;;
15712;SDS011;7957;51.608;6.916;2023-07-13T06:26:41;9.53;;;3.70;;
15712;SDS011;7957;51.608;6.916;2023-07-13T06:29:08;7.90;;;3.93;;
15712;SDS011;7957;51.608;6.916;2023-07-13T06:31:37;7.47;;;4.00;;
15712;SDS011;7957;51.608;6.916;2023-07-13T06:34:05;11.20;;;4.13;;
15712;SDS011;7957;51.608;6.916;2023-07-13T06:36:32;10.27;;;4.20;;
15712;SDS011;7957;51.608;6.916;2023-07-13T06:39:01;9.53;;;4.40;;
15712;SDS011;7957;51.608;6.916;2023-07-13T06:41:28;9.00;;;3.73;;
15712;SDS011;7957;51.608;6.916;2023-07-13T06:43:55;8.67;;;4.10;;
15712;SDS011;7957;51.608;6.916;2023-07-13T06:46:22;9.37;;;4.27;;
15712;SDS011;7957;51.608;6.916;2023-07-13T06:48:51;12.40;;;4.57;;
15712;SDS011;7957;51.608;6.916;2023-07-13T06:51:18;9.33;;;4.20;;
15712;SDS011;7957;51.608;6.916;2023-07-13T06:53:45;7.73;;;3.83;;
15712;SDS011;7957;51.608;6.916;2023-07-13T06:56:12;8.57;;;4.07;;
15712;SDS011;7957;51.608;6.916;2023-07-13T06:58:39;12.70;;;4.60;;
15712;SDS011;7957;51.608;6.916;2023-07-13T07:01:06;9.30;;;4.27;;
15712;SDS011;7957;51.608;6.916;2023-07-13T07:03:33;8.53;;;4.80;;
15712;SDS011;7957;51.608;6.916;2023-07-13T07:06:03;7.30;;;4.07;;
15712;SDS011;7957;51.608;6.916;2023-07-13T07:08:38;10.47;;;5.17;;
15712;SDS011;7957;51.608;6.916;2023-07-13T07:11:05;10.70;;;4.70;;
15712;SDS011;7957;51.608;6.916;2023-07-13T07:13:32;8.73;;;4.70;;
15712;SDS011;7957;51.608;6.916;2023-07-13T07:15:59;8.47;;;4.10;;
15712;SDS011;7957;51.608;6.916;2023-07-13T07:18:26;9.00;;;4.70;;
15712;SDS011;7957;51.608;6.916;2023-07-13T07:20:53;14.87;;;4.77;;
15712;SDS011;7957;51.608;6.916;2023-07-13T07:23:21;7.77;;;4.33;;
15712;SDS011;7957;51.608;6.916;2023-07-13T07:25:48;8.60;;;4.43;;
15712;SDS011;7957;51.608;6.916;2023-07-13T07:28:16;7.87;;;4.13;;
15712;SDS011;7957;51.608;6.916;2023-07-13T07:30:44;8.97;;;4.20;;
15712;SDS011;7957;51.608;6.916;2023-07-13T07:33:11;9.97;;;4.30;;
15712;SDS011;7957;51.608;6.916;2023-07-13T07:35:38;9.13;;;4.53;;
15712;SDS011;7957;51.608;6.916;2023-07-13T07:38:05;9.90;;;4.97;;
15712;SDS011;7957;51.608;6.916;2023-07-13T07:40:37;8.73;;;4.87;;
15712;SDS011;7957;51.608;6.916;2023-07-13T07:43:04;8.87;;;4.50;;
15712;SDS011;7957;51.608;6.916;2023-07-13T07:45:31;12.57;;;4.57;;
15712;SDS011;7957;51.608;6.916;2023-07-13T07:47:58;7.33;;;4.07;;
15712;SDS011;7957;51.608;6.916;2023-07-13T07:50:25;7.57;;;4.10;;
15712;SDS011;7957;51.608;6.916;2023-07-13T07:52:53;7.87;;;4.33;;
15712;SDS011;7957;51.608;6.916;2023-07-13T07:55:21;11.27;;;5.03;;
15712;SDS011;7957;51.608;6.916;2023-07-13T07:57:49;11.73;;;5.83;;
15712;SDS011;7957;51.608;6.916;2023-07-13T08:00:17;9.93;;;5.40;;
15712;SDS011;7957;51.608;6.916;2023-07-13T08:02:44;11.00;;;4.67;;
15712;SDS011;7957;51.608;6.916;2023-07-13T08:05:12;9.17;;;5.53;;
15712;SDS011;7957;51.608;6.916;2023-07-13T08:07:39;9.33;;;5.37;;
15712;SDS011;7957;51.608;6.916;2023-07-13T08:10:06;10.20;;;5.63;;
15712;SDS011;7957;51.608;6.916;2023-07-13T08:12:34;8.73;;;5.43;;
15712;SDS011;7957;51.608;6.916;2023-07-13T08:15:03;11.40;;;5.40;;
15712;SDS011;7957;51.608;6.916;2023-07-13T08:17:31;10.37;;;5.67;;
15712;SDS011;7957;51.608;6.916;2023-07-13T08:19:58;10.57;;;5.37;;
15712;SDS011;7957;51.608;6.916;2023-07-13T08:22:25;10.33;;;5.40;;
15712;SDS011;7957;51.608;6.916;2023-07-13T08:24:53;8.33;;;5.23;;
15712;SDS011;7957;51.608;6.916;2023-07-13T08:27:21;9.80;;;5.13;;
15712;SDS011;7957;51.608;6.916;2023-07-13T08:29:49;10.30;;;5.40;;
15712;SDS011;7957;51.608;6.916;2023-07-13T08:32:18;10.60;;;5.17;;
15712;SDS011;7957;51.608;6.916;2023-07-13T08:34:46;9.47;;;5.30;;
15712;SDS011;7957;51.608;6.916;2023-07-13T08:37:13;10.60;;;5.40;;
15712;SDS011;7957;51.608;6.916;2023-07-13T08:39:41;11.13;;;5.50;;
15712;SDS011;7957;51.608;6.916;2023-07-13T08:42:12;10.53;;;5.47;;
15712;SDS011;7957;51.608;6.916;2023-07-13T08:44:48;10.17;;;5.73;;
15712;SDS011;7957;51.608;6.916;2023-07-13T08:47:23;9.33;;;5.13;;
15712;SDS011;7957;51.608;6.916;2023-07-13T08:49:51;8.50;;;5.20;;
15712;SDS011;7957;51.608;6.916;2023-07-13T08:52:30;12.13;;;5.57;;
15712;SDS011;7957;51.608;6.916;2023-07-13T08:55:02;11.13;;;5.13;;
15712;SDS011;7957;51.608;6.916;2023-07-13T08:57:35;9.30;;;5.03;;
15712;SDS011;7957;51.608;6.916;2023-07-13T09:00:02;9.20;;;5.17;;
15712;SDS011;7957;51.608;6.916;2023-07-13T09:02:38;10.90;;;5.57;;
15712;SDS011;7957;51.608;6.916;2023-07-13T09:05:12;11.30;;;6.00;;
15712;SDS011;7957;51.608;6.916;2023-07-13T09:07:45;8.63;;;5.70;;
15712;SDS011;7957;51.608;6.916;2023-07-13T09:10:28;12.50;;;6.13;;
15712;SDS011;7957;51.608;6.916;2023-07-13T09:13:01;8.87;;;5.57;;
15712;SDS011;7957;51.608;6.916;2023-07-13T09:15:38;7.50;;;4.90;;
15712;SDS011;7957;51.608;6.916;2023-07-13T09:18:10;8.97;;;5.00;;
15712;SDS011;7957;51.608;6.916;2023-07-13T09:20:41;8.90;;;4.63;;
15712;SDS011;7957;51.608;6.916;2023-07-13T09:23:14;9.97;;;4.90;;
15712;SDS011;7957;51.608;6.916;2023-07-13T09:25:44;7.50;;;4.50;;
15712;SDS011;7957;51.608;6.916;2023-07-13T09:28:16;8.03;;;4.30;;
15712;SDS011;7957;51.608;6.916;2023-07-13T09:30:49;10.33;;;4.70;;
15712;SDS011;7957;51.608;6.916;2023-07-13T09:33:20;11.33;;;4.73;;
15712;SDS011;7957;51.608;6.916;2023-07-13T09:35:48;9.07;;;5.27;;
15712;SDS011;7957;51.608;6.916;2023-07-13T09:38:16;8.83;;;4.67;;
15712;SDS011;7957;51.608;6.916;2023-07-13T09:46:36;7.60;;;4.10;;
15712;SDS011;7957;51.608;6.916;2023-07-13T09:49:06;7.53;;;4.03;;
15712;SDS011;7957;51.608;6.916;2023-07-13T09:51:35;10.13;;;4.20;;
15712;SDS011;7957;51.608;6.916;2023-07-13T09:54:03;7.67;;;3.83;;
15712;SDS011;7957;51.608;6.916;2023-07-13T09:56:30;8.00;;;4.00;;
15712;SDS011;7957;51.608;6.916;2023-07-13T09:58:58;8.57;;;4.43;;
15712;SDS011;7957;51.608;6.916;2023-07-13T10:01:34;6.60;;;3.80;;
15712;SDS011;7957;51.608;6.916;2023-07-13T10:04:09;6.20;;;3.80;;
15712;SDS011;7957;51.608;6.916;2023-07-13T10:06:39;11.33;;;3.97;;
15712;SDS011;7957;51.608;6.916;2023-07-13T10:09:08;6.53;;;4.00;;
15712;SDS011;7957;51.608;6.916;2023-07-13T10:11:36;6.17;;;3.77;;
15712;SDS011;7957;51.608;6.916;2023-07-13T10:14:09;6.70;;;3.60;;
15712;SDS011;7957;51.608;6.916;2023-07-13T10:16:40;7.50;;;3.50;;
15712;SDS011;7957;51.608;6.916;2023-07-13T10:19:12;5.30;;;3.60;;
15712;SDS011;7957;51.608;6.916;2023-07-13T10:21:50;6.73;;;3.67;;
15712;SDS011;7957;51.608;6.916;2023-07-13T10:24:22;8.23;;;3.90;;
15712;SDS011;7957;51.608;6.916;2023-07-13T10:26:52;6.30;;;3.37;;
15712;SDS011;7957;51.608;6.916;2023-07-13T10:29:24;7.13;;;3.70;;
15712;SDS011;7957;51.608;6.916;2023-07-13T10:31:53;6.20;;;3.43;;
15712;SDS011;7957;51.608;6.916;2023-07-13T10:34:23;6.57;;;3.67;;
15712;SDS011;7957;51.608;6.916;2023-07-13T10:36:51;7.43;;;3.57;;
15712;SDS011;7957;51.608;6.916;2023-07-13T10:39:19;6.17;;;3.57;;
15712;SDS011;7957;51.608;6.916;2023-07-13T10:41:50;6.33;;;3.57;;
15712;SDS011;7957;51.608;6.916;2023-07-13T10:44:21;6.53;;;3.50;;
15712;SDS011;7957;51.608;6.916;2023-07-13T10:46:54;6.83;;;3.50;;
15712;SDS011;7957;51.608;6.916;2023-07-13T10:49:25;5.50;;;3.33;;
15712;SDS011;7957;51.608;6.916;2023-07-13T10:51:54;7.27;;;3.60;;
15712;SDS011;7957;51.608;6.916;2023-07-13T10:54:21;7.17;;;3.47;;
15712;SDS011;7957;51.608;6.916;2023-07-13T10:56:53;6.00;;;3.23;;
15712;SDS011;7957;51.608;6.916;2023-07-13T10:59:35;7.87;;;3.50;;
15712;SDS011;7957;51.608;6.916;2023-07-13T11:02:08;7.33;;;3.83;;
15712;SDS011;7957;51.608;6.916;2023-07-13T11:04:44;7.00;;;3.47;;
15712;SDS011;7957;51.608;6.916;2023-07-13T11:07:19;8.23;;;3.73;;
15712;SDS011;7957;51.608;6.916;2023-07-13T11:09:49;8.40;;;3.70;;
15712;SDS011;7957;51.608;6.916;2023-07-13T11:12:27;7.80;;;3.27;;
15712;SDS011;7957;51.608;6.916;2023-07-13T11:15:10;7.23;;;3.40;;
15712;SDS011;7957;51.608;6.916;2023-07-13T11:17:47;6.77;;;3.50;;
15712;SDS011;7957;51.608;6.916;2023-07-13T11:20:26;6.10;;;3.10;;
15712;SDS011;7957;51.608;6.916;2023-07-13T11:23:15;6.17;;;2.90;;
15712;SDS011;7957;51.608;6.916;2023-07-13T11:25:53;7.90;;;3.10;;
15712;SDS011;7957;51.608;6.916;2023-07-13T11:28:21;7.20;;;3.40;;
15712;SDS011;7957;51.608;6.916;2023-07-13T11:30:59;6.17;;;3.10;;
15712;SDS011;7957;51.608;6.916;2023-07-13T11:36:30;5.67;;;2.87;;
15712;SDS011;7957;51.608;6.916;2023-07-13T11:39:03;6.90;;;3.33;;
15712;SDS011;7957;51.608;6.916;2023-07-13T11:41:43;7.43;;;3.20;;
15712;SDS011;7957;51.608;6.916;2023-07-13T11:44:12;6.17;;;3.20;;
15712;SDS011;7957;51.608;6.916;2023-07-13T11:46:44;6.47;;;2.90;;
15712;SDS011;7957;51.608;6.916;2023-07-13T11:49:14;7.07;;;3.00;;
15712;SDS011;7957;51.608;6.916;2023-07-13T11:51:44;6.77;;;3.00;;
15712;SDS011;7957;51.608;6.916;2023-07-13T11:54:24;3.63;;;2.47;;
15712;SDS011;7957;51.608;6.916;2023-07-13T11:56:52;4.77;;;2.60;;
15712;SDS011;7957;51.608;6.916;2023-07-13T11:59:21;5.33;;;2.97;;
15712;SDS011;7957;51.608;6.916;2023-07-13T12:01:49;5.43;;;3.10;;
15712;SDS011;7957;51.608;6.916;2023-07-13T12:04:20;5.30;;;2.63;;
15712;SDS011;7957;51.608;6.916;2023-07-13T12:07:03;5.80;;;2.70;;
15712;SDS011;7957;51.608;6.916;2023-07-13T12:09:45;5.97;;;3.00;;
15712;SDS011;7957;51.608;6.916;2023-07-13T12:12:17;5.40;;;3.00;;
15712;SDS011;7957;51.608;6.916;2023-07-13T12:14:45;6.23;;;2.77;;
15712;SDS011;7957;51.608;6.916;2023-07-13T12:17:16;4.40;;;2.30;;
15712;SDS011;7957;51.608;6.916;2023-07-13T12:19:45;5.43;;;2.80;;
15712;SDS011;7957;51.608;6.916;2023-07-13T12:22:16;5.40;;;2.80;;
15712;SDS011;7957;51.608;6.916;2023-07-13T12:24:45;6.17;;;2.83;;
15712;SDS011;7957;51.608;6.916;2023-07-13T12:27:16;6.37;;;2.60;;
15712;SDS011;7957;51.608;6.916;2023-07-13T12:29:49;4.60;;;2.90;;
15712;SDS011;7957;51.608;6.916;2023-07-13T12:32:18;4.17;;;2.70;;
15712;SDS011;7957;51.608;6.916;2023-07-13T12:34:52;6.17;;;2.93;;
15712;SDS011;7957;51.608;6.916;2023-07-13T12:37:22;4.13;;;2.20;;
15712;SDS011;7957;51.608;6.916;2023-07-13T12:39:50;5.03;;;2.87;;
15712;SDS011;7957;51.608;6.916;2023-07-13T12:42:19;5.80;;;2.47;;
15712;SDS011;7957;51.608;6.916;2023-07-13T12:44:49;7.07;;;2.70;;
15712;SDS011;7957;51.608;6.916;2023-07-13T12:47:16;6.00;;;2.80;;
15712;SDS011;7957;51.608;6.916;2023-07-13T12:49:48;5.07;;;2.70;;
15712;SDS011;7957;51.608;6.916;2023-07-13T12:52:17;6.50;;;2.60;;
15712;SDS011;7957;51.608;6.916;2023-07-13T12:54:54;5.73;;;2.37;;
15712;SDS011;7957;51.608;6.916;2023-07-13T12:57:25;9.43;;;3.20;;
15712;SDS011;7957;51.608;6.916;2023-07-13T12:59:53;6.40;;;2.80;;
15712;SDS011;7957;51.608;6.916;2023-07-13T13:02:23;5.67;;;3.50;;
15712;SDS011;7957;51.608;6.916;2023-07-13T13:04:54;10.30;;;3.83;;
15712;SDS011;7957;51.608;6.916;2023-07-13T13:07:23;8.93;;;4.43;;
15712;SDS011;7957;51.608;6.916;2023-07-13T13:09:50;7.03;;;3.70;;
15712;SDS011;7957;51.608;6.916;2023-07-13T13:12:19;6.27;;;3.53;;
15712;SDS011;7957;51.608;6.916;2023-07-13T13:14:46;8.67;;;3.60;;
15712;SDS011;7957;51.608;6.916;2023-07-13T13:17:16;5.40;;;3.27;;
15712;SDS011;7957;51.608;6.916;2023-07-13T13:19:46;6.10;;;3.33;;
15712;SDS011;7957;51.608;6.916;2023-07-13T13:22:13;7.03;;;3.80;;
15712;SDS011;7957;51.608;6.916;2023-07-13T13:24:40;4.83;;;3.23;;
15712;SDS011;7957;51.608;6.916;2023-07-13T13:27:09;6.27;;;3.13;;
15712;SDS011;7957;51.608;6.916;2023-07-13T13:29:47;5.30;;;2.90;;
15712;SDS011;7957;51.608;6.916;2023-07-13T13:32:16;4.83;;;3.20;;
15712;SDS011;7957;51.608;6.916;2023-07-13T13:34:44;5.50;;;3.37;;
15712;SDS011;7957;51.608;6.916;2023-07-13T13:37:16;5.47;;;3.20;;
15712;SDS011;7957;51.608;6.916;2023-07-13T13:39:45;4.40;;;2.90;;
15712;SDS011;7957;51.608;6.916;2023-07-13T13:42:12;3.83;;;2.90;;
15712;SDS011;7957;51.608;6.916;2023-07-13T13:44:39;5.20;;;3.30;;
15712;SDS011;7957;51.608;6.916;2023-07-13T13:47:12;4.00;;;2.93;;
15712;SDS011;7957;51.608;6.916;2023-07-13T13:49:51;4.27;;;3.00;;
15712;SDS011;7957;51.608;6.916;2023-07-13T13:52:21;4.40;;;2.70;;
15712;SDS011;7957;51.608;6.916;2023-07-13T13:54:47;4.77;;;3.03;;
15712;SDS011;7957;51.608;6.916;2023-07-13T13:57:14;4.47;;;2.73;;
15712;SDS011;7957;51.608;6.916;2023-07-13T13:59:42;6.53;;;3.03;;
15712;SDS011;7957;51.608;6.916;2023-07-13T14:02:20;3.70;;;2.70;;
15712;SDS011;7957;51.608;6.916;2023-07-13T14:04:54;5.03;;;3.50;;
15712;SDS011;7957;51.608;6.916;2023-07-13T14:07:24;5.27;;;2.80;;
15712;SDS011;7957;51.608;6.916;2023-07-13T14:09:51;4.43;;;3.10;;
15712;SDS011;7957;51.608;6.916;2023-07-13T14:12:19;5.13;;;2.80;;
15712;SDS011;7957;51.608;6.916;2023-07-13T14:14:46;5.63;;;3.10;;
15712;SDS011;7957;51.608;6.916;2023-07-13T14:17:19;5.37;;;3.00;;
15712;SDS011;7957;51.608;6.916;2023-07-13T14:19:48;4.73;;;3.03;;
15712;SDS011;7957;51.608;6.916;2023-07-13T14:22:21;3.40;;;2.90;;
15712;SDS011;7957;51.608;6.916;2023-07-13T14:24:49;3.40;;;2.80;;
15712;SDS011;7957;51.608;6.916;2023-07-13T14:27:18;5.67;;;3.20;;
15712;SDS011;7957;51.608;6.916;2023-07-13T14:29:45;4.07;;;3.17;;
15712;SDS011;7957;51.608;6.916;2023-07-13T14:32:12;4.73;;;3.10;;
15712;SDS011;7957;51.608;6.916;2023-07-13T14:34:41;4.83;;;3.03;;
15712;SDS011;7957;51.608;6.916;2023-07-13T14:37:11;5.07;;;3.13;;
15712;SDS011;7957;51.608;6.916;2023-07-13T14:39:41;6.07;;;3.00;;
15712;SDS011;7957;51.608;6.916;2023-07-13T14:42:09;4.80;;;2.80;;
15712;SDS011;7957;51.608;6.916;2023-07-13T14:44:37;3.43;;;3.03;;
15712;SDS011;7957;51.608;6.916;2023-07-13T14:47:05;3.20;;;2.77;;
15712;SDS011;7957;51.608;6.916;2023-07-13T14:49:34;3.63;;;2.97;;
15712;SDS011;7957;51.608;6.916;2023-07-13T14:52:05;3.70;;;2.90;;
15712;SDS011;7957;51.608;6.916;2023-07-13T14:54:37;3.10;;;2.73;;
15712;SDS011;7957;51.608;6.916;2023-07-13T14:57:08;3.60;;;2.87;;
15712;SDS011;7957;51.608;6.916;2023-07-13T14:59:36;3.60;;;3.10;;
15712;SDS011;7957;51.608;6.916;2023-07-13T15:02:08;3.97;;;3.10;;
15712;SDS011;7957;51.608;6.916;2023-07-13T15:04:49;4.23;;;2.90;;
15712;SDS011;7957;51.608;6.916;2023-07-13T15:07:17;2.93;;;2.70;;
15712;SDS011;7957;51.608;6.916;2023-07-13T15:09:45;3.73;;;3.07;;
15712;SDS011;7957;51.608;6.916;2023-07-13T15:12:13;4.63;;;3.10;;
15712;SDS011;7957;51.608;6.916;2023-07-13T15:14:40;4.83;;;3.20;;
15712;SDS011;7957;51.608;6.916;2023-07-13T15:17:14;5.73;;;3.50;;
15712;SDS011;7957;51.608;6.916;2023-07-13T15:19:51;4.40;;;3.30;;
15712;SDS011;7957;51.608;6.916;2023-07-13T15:22:19;3.53;;;3.23;;